Time;durP1;ratioP1;P1;durP2;ratioP2;P2;SDS_P1;SDS_P2;PMS_P1;PMS_P2;Temp;Humidity;BMP_temperature;BMP_pressure;BME280_temperature;BME280_humidity;BME280_pressure;Samples;Min_cycle;Max_cycle;Signal;HPM_P1;HPM_P2
2022/01/06 00:01:01;;;;;;;2.55;1.05;;;15.50;86.10;;;;;;5054614;28;20104;-43
2022/01/06 00:03:27;;;;;;;6.25;1.15;;;;;;;;;;5054419;28;20090;-43
2022/01/06 00:05:54;;;;;;;4.38;1.13;;;;;;;;;;5054497;28;20061;-43
2022/01/06 00:08:20;;;;;;;3.10;0.82;;;;;;;;;;5054472;28;20143;-44
2022/01/06 00:10:48;;;;;;;5.15;0.93;;;;;;;;;;5054673;28;20033;-43
2022/01/06 00:13:17;;;;;;;4.45;1.15;;;;;;;;;;5054542;28;20382;-51
2022/01/06 00:23:48;;;;;;;3.25;1.00;;;;;;;;;;5054443;28;20067;-50
2022/01/06 00:26:14;;;;;;;4.13;1.10;;;;;;;;;;5054075;28;20029;-50
2022/01/06 00:28:40;;;;;;;4.90;0.95;;;;;;;;;;5054046;28;20028;-50
2022/01/06 00:31:06;;;;;;;3.40;1.10;;;;;;;;;;5054041;28;20526;-53
2022/01/06 00:33:33;;;;;;;3.88;0.80;;;15.30;82.60;;;;;;5053917;28;20100;-50
2022/01/06 00:35:59;;;;;;;2.78;1.23;;;;;;;;;;5053947;28;20028;-50
2022/01/06 00:38:25;;;;;;;2.08;0.73;;;;;;;;;;5054133;28;20075;-50
2022/01/06 00:40:52;;;;;;;2.63;0.93;;;15.30;85.20;;;;;;5053879;28;20025;-50
2022/01/06 00:43:18;;;;;;;3.15;1.05;;;;;;;;;;5053790;28;20104;-50
2022/01/06 00:45:44;;;;;;;6.65;1.35;;;;;;;;;;5053741;28;20059;-50
2022/01/06 00:48:10;;;;;;;2.17;1.00;;;;;;;;;;5054067;28;20052;-50
2022/01/06 00:50:41;;;;;;;4.95;1.13;;;15.20;79.80;;;;;;5053479;28;20091;-51
2022/01/06 00:53:07;;;;;;;3.13;1.02;;;;;;;;;;5053640;28;20029;-50
2022/01/06 00:55:35;;;;;;;3.83;1.20;;;15.20;86.10;;;;;;5053594;28;20057;-51
2022/01/06 00:58:01;;;;;;;3.20;1.25;;;;;;;;;;5053555;28;20029;-50
2022/01/06 01:00:31;;;;;;;3.67;1.23;;;15.20;86.10;;;;;;5053664;28;20025;-50
2022/01/06 01:02:57;;;;;;;3.35;1.20;;;;;;;;;;5053306;28;20116;-50
2022/01/06 01:05:23;;;;;;;3.90;0.95;;;;;;;;;;5053346;28;20114;-50
2022/01/06 01:07:49;;;;;;;2.72;0.93;;;;;;;;;;5053402;28;20031;-50
2022/01/06 01:10:15;;;;;;;5.25;1.20;;;;;;;;;;5053175;28;20407;-52
2022/01/06 01:12:46;;;;;;;3.70;0.57;;;;;;;;;;5053199;28;20025;-53
2022/01/06 01:15:19;;;;;;;2.92;1.13;;;15.20;82.50;;;;;;5053519;28;20052;-50
2022/01/06 01:17:47;;;;;;;1.90;0.85;;;;;;;;;;5053414;28;20426;-50
2022/01/06 01:20:14;;;;;;;1.50;0.70;;;;;;;;;;5053076;28;20467;-52
2022/01/06 01:22:39;;;;;;;3.05;1.05;;;;;;;;;;5053345;28;20035;-50
2022/01/06 01:25:06;;;;;;;3.25;0.70;;;;;;;;;;5053017;28;20029;-51
2022/01/06 01:27:37;;;;;;;5.00;1.77;;;;;;;;;;5053021;28;20392;-51
2022/01/06 01:30:09;;;;;;;2.53;1.08;;;;;;;;;;5053183;28;20029;-50
2022/01/06 01:32:36;;;;;;;2.25;0.68;;;;;;;;;;5053213;28;20029;-51
2022/01/06 01:35:09;;;;;;;1.92;0.77;;;15.10;80.40;;;;;;5052792;28;20107;-50
2022/01/06 01:37:37;;;;;;;4.05;1.27;;;15.10;86.40;;;;;;5053014;28;20029;-50
2022/01/06 01:40:05;;;;;;;3.30;0.90;;;15.10;86.20;;;;;;5052776;28;20102;-51
2022/01/06 01:42:31;;;;;;;2.65;1.17;;;;;;;;;;5052433;28;20163;-50
2022/01/06 01:44:57;;;;;;;2.13;0.98;;;;;;;;;;5052681;28;20029;-50
2022/01/06 01:47:36;;;;;;;3.65;1.13;;;;;;;;;;5052847;28;20021;-50
2022/01/06 01:50:12;;;;;;;2.70;1.00;;;15.00;83.00;;;;;;5052827;28;20036;-51
2022/01/06 01:52:41;;;;;;;3.95;0.95;;;15.10;86.30;;;;;;5052845;28;20056;-50
2022/01/06 01:55:08;;;;;;;3.38;0.80;;;14.80;86.10;;;;;;5051193;28;20032;-51
2022/01/06 01:57:34;;;;;;;4.40;1.20;;;;;;;;;;5052510;28;20403;-51
2022/01/06 02:00:00;;;;;;;5.35;0.93;;;;;;;;;;5052409;28;20025;-50
2022/01/06 02:02:27;;;;;;;4.70;1.17;;;;;;;;;;5051800;28;20124;-51
2022/01/06 02:04:54;;;;;;;4.13;1.10;;;;;;;;;;5052388;28;20033;-50
2022/01/06 02:07:20;;;;;;;4.45;1.08;;;;;;;;;;5052476;28;20097;-51
2022/01/06 02:09:45;;;;;;;3.78;0.95;;;;;;;;;;5052293;28;20551;-50
2022/01/06 02:12:30;;;;;;;2.83;1.25;;;15.00;86.70;;;;;;5052315;28;20104;-51
2022/01/06 02:14:56;;;;;;;2.63;0.73;;;14.90;83.80;;;;;;5052406;28;20116;-51
2022/01/06 02:17:22;;;;;;;2.17;0.80;;;;;;;;;;5052283;28;20040;-51
2022/01/06 02:19:57;;;;;;;3.35;0.82;;;14.90;80.60;;;;;;5052287;28;20025;-50
2022/01/06 02:22:23;;;;;;;3.03;1.20;;;;;;;;;;5052304;28;20040;-50
2022/01/06 02:24:50;;;;;;;7.20;1.30;;;;;;;;;;5052165;28;20025;-52
2022/01/06 02:27:16;;;;;;;2.03;0.70;;;;;;;;;;5052153;28;20029;-51
2022/01/06 02:29:43;;;;;;;3.97;1.17;;;;;;;;;;5052068;28;20499;-50
2022/01/06 02:32:11;;;;;;;2.92;0.80;;;14.90;86.60;;;;;;5052115;28;20039;-50
2022/01/06 02:34:37;;;;;;;6.13;1.05;;;;;;;;;;5052360;28;20014;-53
2022/01/06 02:37:03;;;;;;;4.28;1.35;;;14.80;86.60;;;;;;5052016;28;20057;-51
2022/01/06 02:39:29;;;;;;;5.45;1.35;;;;;;;;;;5052363;28;20017;-44
2022/01/06 02:41:55;;;;;;;3.42;0.77;;;;;;;;;;5052011;28;20037;-42
2022/01/06 02:44:25;;;;;;;3.58;0.82;;;;;;;;;;5051994;28;20152;-43
2022/01/06 02:46:52;;;;;;;;;;;14.80;82.70;;;;;;5052761;28;20033;-43
2022/01/06 02:49:18;;;;;;;4.07;1.10;;;;;;;;;;5051912;28;19912;-43
2022/01/06 02:51:44;;;;;;;3.60;0.82;;;;;;;;;;5051985;28;20033;-42
2022/01/06 02:54:10;;;;;;;2.58;0.90;;;;;;;;;;5051905;28;20494;-43
2022/01/06 02:56:38;;;;;;;4.20;0.88;;;;;;;;;;5051938;28;20037;-43
2022/01/06 02:59:04;;;;;;;3.42;0.75;;;;;;;;;;5051919;28;20036;-43
2022/01/06 03:01:30;;;;;;;2.90;0.90;;;;;;;;;;5051819;28;20025;-43
2022/01/06 03:03:56;;;;;;;5.00;1.20;;;;;;;;;;5051878;28;20108;-43
2022/01/06 03:06:22;;;;;;;3.47;1.17;;;;;;;;;;5051763;28;20104;-43
2022/01/06 03:08:48;;;;;;;3.55;1.13;;;;;;;;;;5051809;28;20494;-43
2022/01/06 03:11:16;;;;;;;3.58;1.08;;;14.40;86.30;;;;;;5051648;28;20406;-42
2022/01/06 03:13:42;;;;;;;7.55;1.10;;;;;;;;;;5050446;28;20018;-42
2022/01/06 03:16:08;;;;;;;5.18;1.63;;;;;;;;;;5054456;28;20070;-43
2022/01/06 03:18:34;;;;;;;4.85;1.13;;;;;;;;;;5055634;28;20029;-43
2022/01/06 03:21:00;;;;;;;3.17;1.25;;;;;;;;;;5055353;28;20458;-43
2022/01/06 03:23:25;;;;;;;3.03;1.00;;;;;;;;;;5055267;28;20047;-43
2022/01/06 03:25:51;;;;;;;2.50;0.80;;;;;;;;;;5055246;28;20029;-43
2022/01/06 03:28:17;;;;;;;2.50;0.90;;;;;;;;;;5055207;28;20052;-43
2022/01/06 03:30:43;;;;;;;2.45;0.82;;;;;;;;;;5055327;28;20068;-42
2022/01/06 03:33:09;;;;;;;3.20;0.90;;;;;;;;;;5055170;28;20467;-43
2022/01/06 03:35:35;;;;;;;1.25;0.95;;;;;;;;;;5055091;28;20391;-43
2022/01/06 03:38:01;;;;;;;1.80;0.80;;;;;;;;;;5055073;28;20158;-43
2022/01/06 03:40:27;;;;;;;3.00;0.63;;;;;;;;;;5054911;28;20033;-43
2022/01/06 03:42:53;;;;;;;3.90;1.20;;;;;;;;;;5055216;28;20024;-43
2022/01/06 03:45:19;;;;;;;3.78;1.17;;;;;;;;;;5054871;28;20029;-43
2022/01/06 03:47:46;;;;;;;2.63;0.70;;;14.60;86.70;;;;;;5055140;28;20104;-43
2022/01/06 03:50:13;;;;;;;3.67;1.13;;;14.70;87.00;;;;;;5054750;28;20048;-43
2022/01/06 03:52:39;;;;;;;4.93;1.40;;;;;;;;;;5054849;28;20016;-43
2022/01/06 03:55:07;;;;;;;4.18;1.27;;;14.70;87.30;;;;;;5054736;28;20090;-44
2022/01/06 03:57:34;;;;;;;2.90;0.57;;;;;;;;;;5054648;28;20025;-43
2022/01/06 04:00:00;;;;;;;3.10;0.93;;;;;;;;;;5054629;28;20117;-43
2022/01/06 04:02:26;;;;;;;2.47;0.75;;;;;;;;;;5054247;28;20037;-43
2022/01/06 04:04:52;;;;;;;2.83;0.98;;;;;;;;;;5054559;28;20384;-43
2022/01/06 04:07:18;;;;;;;2.70;0.70;;;;;;;;;;5054448;28;20108;-43
2022/01/06 04:09:44;;;;;;;3.72;1.42;;;;;;;;;;5054323;28;20395;-43
2022/01/06 04:12:11;;;;;;;2.63;0.70;;;;;;;;;;5054411;28;20078;-44
2022/01/06 04:14:37;;;;;;;2.63;1.10;;;14.60;86.00;;;;;;5054342;28;20048;-43
2022/01/06 04:17:07;;;;;;;3.10;0.80;;;;;;;;;;5054306;28;20029;-43
2022/01/06 04:19:33;;;;;;;4.90;1.20;;;;;;;;;;5054305;28;20030;-43
2022/01/06 04:21:59;;;;;;;3.75;0.88;;;;;;;;;;5054216;28;20047;-43
2022/01/06 04:24:25;;;;;;;3.75;1.10;;;;;;;;;;5054138;28;20025;-43
2022/01/06 04:26:51;;;;;;;2.70;0.75;;;;;;;;;;5054039;28;20025;-43
2022/01/06 04:29:17;;;;;;;5.20;0.98;;;;;;;;;;5054251;28;20020;-43
2022/01/06 04:31:43;;;;;;;3.40;1.02;;;;;;;;;;5054051;28;20044;-43
2022/01/06 04:34:09;;;;;;;5.00;0.88;;;;;;;;;;5054235;28;20108;-43
2022/01/06 04:36:35;;;;;;;6.40;1.30;;;;;;;;;;5053921;28;20029;-43
2022/01/06 04:39:01;;;;;;;2.35;0.80;;;;;;;;;;5053958;28;20016;-43
2022/01/06 04:41:27;;;;;;;4.35;0.93;;;;;;;;;;5054085;28;20116;-43
2022/01/06 04:43:53;;;;;;;4.00;1.02;;;;;;;;;;5053805;28;20112;-42
2022/01/06 04:46:20;;;;;;;2.83;0.60;;;;;;;;;;5053786;28;20068;-43
2022/01/06 04:48:46;;;;;;;4.07;0.98;;;;;;;;;;5054053;28;20039;-43
2022/01/06 04:51:12;;;;;;;5.28;0.70;;;;;;;;;;5053577;28;20249;-43
2022/01/06 04:53:38;;;;;;;3.72;1.00;;;;;;;;;;5053645;28;20047;-43
2022/01/06 04:56:04;;;;;;;3.40;1.10;;;;;;;;;;5053550;28;20078;-43
2022/01/06 04:58:32;;;;;;;4.93;1.50;;;;;;;;;;5053578;28;20032;-44
2022/01/06 05:00:58;;;;;;;4.32;0.90;;;;;;;;;;5053663;28;20079;-43
2022/01/06 05:03:24;;;;;;;2.88;1.00;;;;;;;;;;5053313;28;20488;-43
2022/01/06 05:05:50;;;;;;;1.90;0.55;;;;;;;;;;5053394;28;20528;-43
2022/01/06 05:08:16;;;;;;;2.47;0.90;;;;;;;;;;5053389;28;20033;-43
2022/01/06 05:10:42;;;;;;;2.35;0.68;;;;;;;;;;5053122;28;20041;-42
2022/01/06 05:13:08;;;;;;;3.38;1.00;;;;;;;;;;5053236;28;20082;-43
2022/01/06 05:15:34;;;;;;;2.17;0.70;;;;;;;;;;5053244;28;20048;-43
2022/01/06 05:17:59;;;;;;;4.38;1.23;;;;;;;;;;5053116;28;20021;-43
2022/01/06 05:20:26;;;;;;;2.05;0.73;;;;;;;;;;5053302;28;20029;-43
2022/01/06 05:22:56;;;;;;;1.80;0.70;;;;;;;;;;5053056;28;20112;-43
2022/01/06 05:25:25;;;;;;;2.47;0.70;;;;;;;;;;5053392;28;20120;-43
2022/01/06 05:27:52;;;;;;;2.05;1.00;;;14.30;85.40;;;;;;5053208;28;20036;-43
2022/01/06 05:30:18;;;;;;;2.03;0.57;;;;;;;;;;5052902;28;20040;-42
2022/01/06 05:32:44;;;;;;;2.72;0.82;;;;;;;;;;5053087;28;20437;-42
2022/01/06 05:35:10;;;;;;;2.15;0.98;;;;;;;;;;5052851;28;20032;-43
2022/01/06 05:37:36;;;;;;;2.95;1.20;;;;;;;;;;5052105;28;20052;-43
2022/01/06 05:40:03;;;;;;;2.25;0.68;;;14.30;83.50;;;;;;5052807;28;20530;-43
2022/01/06 05:42:29;;;;;;;2.28;0.57;;;;;;;;;;5052841;28;20029;-43
2022/01/06 05:44:55;;;;;;;2.60;0.70;;;;;;;;;;5052770;28;20032;-42
2022/01/06 05:47:21;;;;;;;1.48;0.50;;;;;;;;;;5052646;28;20498;-43
2022/01/06 05:49:46;;;;;;;2.08;0.60;;;;;;;;;;5052556;28;20032;-43
2022/01/06 05:52:13;;;;;;;3.75;0.90;;;;;;;;;;5052565;28;20025;-43
2022/01/06 05:54:39;;;;;;;2.47;1.00;;;;;;;;;;5052509;28;20513;-43
2022/01/06 05:57:06;;;;;;;3.20;0.90;;;;;;;;;;5052593;28;20356;-43
2022/01/06 05:59:32;;;;;;;3.28;0.80;;;;;;;;;;5052749;28;20021;-43
2022/01/06 06:01:58;;;;;;;2.28;0.77;;;;;;;;;;5052397;28;20048;-43
2022/01/06 06:04:24;;;;;;;1.38;0.63;;;;;;;;;;5052416;28;20033;-43
2022/01/06 06:06:50;;;;;;;2.17;0.68;;;;;;;;;;5052614;28;20151;-43
2022/01/06 06:09:16;;;;;;;1.60;0.35;;;;;;;;;;5052354;28;20061;-43
2022/01/06 06:11:42;;;;;;;1.63;0.80;;;;;;;;;;5052182;28;20533;-43
2022/01/06 06:14:08;;;;;;;3.15;0.70;;;;;;;;;;5052296;28;20096;-43
2022/01/06 06:16:34;;;;;;;3.20;0.63;;;;;;;;;;5052280;28;20507;-44
2022/01/06 06:19:00;;;;;;;2.35;0.50;;;;;;;;;;5052279;28;20029;-44
2022/01/06 06:21:26;;;;;;;1.83;0.63;;;;;;;;;;5052259;28;20063;-50
2022/01/06 06:23:52;;;;;;;2.00;0.50;;;;;;;;;;5052246;28;20036;-50
2022/01/06 06:26:18;;;;;;;3.72;0.80;;;;;;;;;;5052400;28;20025;-52
2022/01/06 06:28:44;;;;;;;1.55;0.50;;;;;;;;;;5052421;28;20388;-50
2022/01/06 06:31:10;;;;;;;0.90;0.32;;;;;;;;;;5052038;28;20491;-49
2022/01/06 06:33:37;;;;;;;1.17;0.57;;;;;;;;;;5052076;28;20031;-49
2022/01/06 06:36:03;;;;;;;2.03;0.50;;;;;;;;;;5052260;28;20384;-51
2022/01/06 06:38:29;;;;;;;1.08;0.40;;;;;;;;;;5052140;28;20022;-52
2022/01/06 06:40:55;;;;;;;2.85;0.70;;;;;;;;;;5052048;28;20035;-49
2022/01/06 06:43:21;;;;;;;1.52;0.70;;;;;;;;;;5052019;28;20503;-50
2022/01/06 06:45:47;;;;;;;1.15;0.30;;;;;;;;;;5051977;28;20087;-49
2022/01/06 06:48:13;;;;;;;2.72;0.55;;;;;;;;;;5051930;28;20033;-49
2022/01/06 06:50:39;;;;;;;2.03;0.47;;;;;;;;;;5055659;28;20041;-49
2022/01/06 06:53:07;;;;;;;2.30;0.50;;;;;;;;;;5055898;28;20176;-50
2022/01/06 06:55:33;;;;;;;1.63;0.50;;;;;;;;;;5055846;28;20119;-50
2022/01/06 06:57:59;;;;;;;2.88;0.63;;;;;;;;;;5055852;28;20060;-49
2022/01/06 07:00:25;;;;;;;2.05;0.47;;;;;;;;;;5055761;28;20116;-51
2022/01/06 07:02:52;;;;;;;0.93;0.47;;;;;;;;;;5055417;28;20084;-55
2022/01/06 07:05:18;;;;;;;2.20;0.95;;;;;;;;;;5055664;28;20499;-56
2022/01/06 07:07:44;;;;;;;3.03;0.73;;;15.70;82.00;;;;;;5055681;28;20029;-49
2022/01/06 07:10:10;;;;;;;2.35;0.90;;;;;;;;;;5055782;28;20021;-50
2022/01/06 07:12:44;;;;;;;1.75;0.70;;;15.70;78.90;;;;;;5055561;28;20509;-50
2022/01/06 07:15:12;;;;;;;1.58;0.50;;;15.70;85.00;;;;;;5055937;28;20021;-50
2022/01/06 07:17:38;;;;;;;1.60;0.60;;;;;;;;;;5055769;28;20378;-55
2022/01/06 07:20:05;;;;;;;1.90;0.73;;;;;;;;;;5055368;28;20438;-56
2022/01/06 07:22:31;;;;;;;2.03;0.90;;;;;;;;;;5055323;28;20048;-51
2022/01/06 07:24:57;;;;;;;3.42;0.75;;;;;;;;;;5055322;28;20475;-53
2022/01/06 07:27:23;;;;;;;2.88;0.80;;;;;;;;;;5055184;28;20096;-51
2022/01/06 07:29:49;;;;;;;2.65;0.88;;;;;;;;;;5053862;28;20033;-53
2022/01/06 07:32:15;;;;;;;4.78;0.93;;;;;;;;;;5055012;28;20037;-50
2022/01/06 07:34:41;;;;;;;3.40;0.88;;;;;;;;;;5055183;28;20483;-51
2022/01/06 07:37:06;;;;;;;2.72;0.57;;;;;;;;;;5055108;28;20494;-55
2022/01/06 07:39:33;;;;;;;2.40;0.80;;;;;;;;;;5055127;28;20091;-52
2022/01/06 07:41:59;;;;;;;4.10;0.57;;;;;;;;;;5054974;28;20032;-52
2022/01/06 07:44:25;;;;;;;3.60;1.00;;;;;;;;;;5055148;28;20385;-52
2022/01/06 07:46:51;;;;;;;3.08;1.02;;;;;;;;;;5054667;28;20028;-50
2022/01/06 07:49:17;;;;;;;7.18;1.30;;;;;;;;;;5054625;28;20029;-51
2022/01/06 07:51:43;;;;;;;2.40;0.70;;;;;;;;;;5053363;28;20048;-42
2022/01/06 07:54:09;;;;;;;1.83;0.60;;;;;;;;;;5054687;28;20025;-43
2022/01/06 07:56:35;;;;;;;3.78;0.73;;;;;;;;;;5054658;28;20024;-43
2022/01/06 07:59:01;;;;;;;2.35;0.73;;;;;;;;;;5054619;28;20104;-43
2022/01/06 08:01:27;;;;;;;6.40;1.17;;;;;;;;;;5053781;28;20021;-42
2022/01/06 08:03:53;;;;;;;4.68;0.70;;;;;;;;;;5054632;28;20033;-43
2022/01/06 08:06:19;;;;;;;2.25;0.80;;;;;;;;;;5054559;28;20396;-42
2022/01/06 08:08:46;;;;;;;2.88;0.95;;;;;;;;;;5054546;28;20036;-42
2022/01/06 08:11:12;;;;;;;1.10;0.73;;;15.90;83.10;;;;;;5054372;28;20043;-43
2022/01/06 08:13:39;;;;;;;1.98;0.60;;;;;;;;;;5054700;28;20021;-43
2022/01/06 08:16:05;;;;;;;1.58;0.65;;;;;;;;;;5054305;28;20037;-43
2022/01/06 08:18:31;;;;;;;2.13;0.80;;;;;;;;;;5054283;28;20025;-43
2022/01/06 08:20:58;;;;;;;3.90;0.88;;;;;;;;;;5054241;28;20100;-42
2022/01/06 08:23:24;;;;;;;2.38;0.88;;;;;;;;;;5054251;28;20394;-42
2022/01/06 08:25:50;;;;;;;2.65;0.82;;;;;;;;;;5054229;28;20061;-42
2022/01/06 08:28:16;;;;;;;3.70;0.70;;;;;;;;;;5054228;28;20051;-42
2022/01/06 08:30:42;;;;;;;4.05;0.77;;;;;;;;;;5054076;28;20515;-43
2022/01/06 08:33:09;;;;;;;2.40;0.82;;;;;;;;;;5054002;28;20025;-42
2022/01/06 08:35:35;;;;;;;2.38;0.77;;;;;;;;;;5053947;28;20028;-44
2022/01/06 08:38:01;;;;;;;2.85;0.85;;;;;;;;;;5053883;28;20021;-42
2022/01/06 08:40:27;;;;;;;1.73;0.70;;;;;;;;;;5053894;28;20095;-42
2022/01/06 08:42:53;;;;;;;2.20;0.75;;;16.10;81.60;;;;;;5053849;28;20057;-44
2022/01/06 08:45:19;;;;;;;3.20;1.00;;;;;;;;;;5053887;28;20033;-44
2022/01/06 08:47:46;;;;;;;2.30;0.85;;;16.10;83.40;;;;;;5053845;28;20033;-44
2022/01/06 08:50:13;;;;;;;3.22;0.70;;;16.20;83.40;;;;;;5053865;28;20031;-42
2022/01/06 08:52:39;;;;;;;2.58;0.77;;;;;;;;;;5053647;28;20021;-43
2022/01/06 08:55:06;;;;;;;2.15;0.90;;;16.10;83.30;;;;;;5053588;28;20056;-42
2022/01/06 08:57:32;;;;;;;3.88;1.10;;;;;;;;;;5053768;28;20468;-42
2022/01/06 08:59:58;;;;;;;1.98;1.00;;;;;;;;;;5053538;28;20029;-42
2022/01/06 09:02:25;;;;;;;3.47;1.10;;;;;;;;;;5053178;28;20060;-42
2022/01/06 09:04:51;;;;;;;4.40;0.75;;;;;;;;;;5053500;28;20379;-43
2022/01/06 09:07:17;;;;;;;2.35;0.60;;;;;;;;;;5053439;28;20025;-42
2022/01/06 09:09:43;;;;;;;2.83;0.85;;;;;;;;;;5053192;28;20040;-42
2022/01/06 09:12:16;;;;;;;2.85;0.90;;;16.00;80.70;;;;;;5052487;28;20523;-42
2022/01/06 09:14:43;;;;;;;3.95;1.00;;;;;;;;;;5053194;28;20068;-42
2022/01/06 09:17:09;;;;;;;3.38;0.73;;;;;;;;;;5053205;28;20028;-42
2022/01/06 09:19:35;;;;;;;4.50;1.25;;;;;;;;;;5053124;28;20382;-42
2022/01/06 09:22:01;;;;;;;3.08;0.90;;;;;;;;;;5051921;28;20033;-43
2022/01/06 09:24:28;;;;;;;3.13;1.02;;;;;;;;;;5053017;28;20091;-50
2022/01/06 09:26:54;;;;;;;2.25;0.80;;;;;;;;;;5053046;28;20025;-49
2022/01/06 09:29:20;;;;;;;2.25;1.00;;;;;;;;;;5052986;28;20033;-50
2022/01/06 09:31:46;;;;;;;4.60;1.13;;;;;;;;;;5052742;28;20041;-49
2022/01/06 09:34:12;;;;;;;2.08;0.90;;;;;;;;;;5052860;28;20036;-49
2022/01/06 09:36:39;;;;;;;3.22;0.90;;;16.00;82.70;;;;;;5052796;28;20033;-49
2022/01/06 09:39:07;;;;;;;2.40;0.80;;;16.00;83.00;;;;;;5052718;28;20028;-50
2022/01/06 09:41:33;;;;;;;2.20;0.88;;;;;;;;;;5052477;28;20036;-49
2022/01/06 09:44:02;;;;;;;1.80;0.60;;;;;;;;;;5052515;28;20040;-49
2022/01/06 09:46:29;;;;;;;2.88;0.90;;;15.90;80.80;;;;;;5052659;28;20033;-51
2022/01/06 09:48:57;;;;;;;5.15;1.20;;;;;;;;;;5052672;28;20546;-50
2022/01/06 09:51:24;;;;;;;2.35;0.70;;;;;;;;;;5052663;28;20526;-52
2022/01/06 09:53:52;;;;;;;3.33;0.95;;;15.70;83.00;;;;;;5052628;28;20029;-50
2022/01/06 09:56:19;;;;;;;2.38;0.70;;;;;;;;;;5052564;28;20031;-50
2022/01/06 09:58:45;;;;;;;5.70;1.17;;;15.70;83.20;;;;;;5052540;28;20025;-50
2022/01/06 10:01:11;;;;;;;2.28;0.70;;;;;;;;;;5052331;28;20025;-51
2022/01/06 10:03:39;;;;;;;4.45;1.00;;;15.50;83.10;;;;;;5052316;28;20435;-49
2022/01/06 10:06:19;;;;;;;1.55;0.75;;;15.70;77.10;;;;;;5052381;28;20021;-52
2022/01/06 10:08:50;;;;;;;2.25;1.02;;;15.80;77.40;;;;;;5052488;28;20071;-51
2022/01/06 10:11:19;;;;;;;2.00;0.60;;;15.70;83.40;;;;;;5052486;28;20041;-49
2022/01/06 10:13:55;;;;;;;2.97;0.88;;;15.70;83.20;;;;;;5052184;28;20017;-51
2022/01/06 10:16:21;;;;;;;2.00;0.68;;;;;;;;;;5052479;28;20383;-50
2022/01/06 10:19:15;;;;;;;2.97;0.82;;;15.60;77.20;;;;;;5052247;28;20053;-51
2022/01/06 10:21:42;;;;;;;2.47;0.80;;;15.70;83.50;;;;;;5051930;28;20051;-53
2022/01/06 10:24:14;;;;;;;1.95;0.73;;;15.70;77.80;;;;;;5051743;28;20029;-50
2022/01/06 10:27:06;;;;;;;2.20;0.88;;;15.70;77.80;;;;;;5052190;28;20025;-49
2022/01/06 10:29:44;;;;;;;2.28;0.82;;;15.50;83.90;;;;;;5052103;28;20509;-51
2022/01/06 10:32:20;;;;;;;1.98;0.80;;;15.40;77.80;;;;;;5052086;28;20056;-50
2022/01/06 10:34:51;;;;;;;2.92;0.90;;;15.40;77.90;;;;;;5052225;28;20029;-53
2022/01/06 10:37:31;;;;;;;3.42;0.80;;;15.50;78.10;;;;;;5052141;28;20029;-50
2022/01/06 10:40:03;;;;;;;2.28;0.85;;;15.50;84.40;;;;;;5052361;28;20025;-51
2022/01/06 10:42:35;;;;;;;2.78;0.70;;;15.40;78.00;;;;;;5052096;28;20032;-49
2022/01/06 10:45:09;;;;;;;1.45;0.60;;;15.50;84.20;;;;;;5051815;28;20037;-50
2022/01/06 10:47:39;;;;;;;1.48;0.65;;;15.50;84.30;;;;;;5052206;28;20036;-50
2022/01/06 10:50:28;;;;;;;3.23;0.80;;;15.40;78.00;;;;;;5051822;28;20552;-51
2022/01/06 10:53:00;;;;;;;2.17;1.02;;;15.40;78.20;;;;;;5051824;28;20649;-51
2022/01/06 10:55:31;;;;;;;2.50;0.68;;;15.40;78.10;;;;;;5052261;28;20025;-50
2022/01/06 10:57:57;;;;;;;2.30;0.88;;;;;;;;;;5051909;28;20471;-43
2022/01/06 11:00:27;;;;;;;2.40;0.73;;;15.40;84.10;;;;;;5051605;28;20021;-43
2022/01/06 11:02:53;;;;;;;2.53;0.70;;;;;;;;;;5051447;28;20081;-43
2022/01/06 11:05:19;;;;;;;3.63;0.77;;;;;;;;;;5051693;28;20079;-43
2022/01/06 11:07:45;;;;;;;3.40;0.70;;;;;;;;;;5051752;28;20065;-43
2022/01/06 11:10:16;;;;;;;3.38;1.15;;;15.70;81.80;;;;;;5051687;28;20476;-43
2022/01/06 11:12:43;;;;;;;2.70;0.60;;;;;;;;;;5052124;28;20117;-43
2022/01/06 11:15:10;;;;;;;1.65;0.70;;;15.80;81.90;;;;;;5052098;28;20436;-44
2022/01/06 11:17:36;;;;;;;2.05;0.70;;;;;;;;;;5051641;28;20426;-44
2022/01/06 11:20:03;;;;;;;1.35;0.57;;;15.80;81.40;;;;;;5051786;28;20057;-43
2022/01/06 11:22:29;;;;;;;2.58;0.80;;;;;;;;;;5051971;28;20067;-43
2022/01/06 11:24:57;;;;;;;3.35;0.60;;;15.70;83.30;;;;;;5051640;28;20483;-43
2022/01/06 11:27:34;;;;;;;1.50;0.80;;;15.70;77.40;;;;;;5051629;28;20100;-43
2022/01/06 11:30:13;;;;;;;2.42;0.60;;;15.60;77.40;;;;;;5051584;28;20032;-43
2022/01/06 11:32:41;;;;;;;1.80;0.70;;;;;;;;;;5051689;28;20510;-43
2022/01/06 11:35:11;;;;;;;2.30;0.60;;;15.70;83.40;;;;;;5051682;28;20387;-44
2022/01/06 11:37:46;;;;;;;1.30;0.40;;;15.70;77.50;;;;;;5055180;28;20060;-43
2022/01/06 11:40:14;;;;;;;1.55;0.68;;;15.70;83.50;;;;;;5054936;28;20040;-44
2022/01/06 11:42:40;;;;;;;2.08;0.70;;;;;;;;;;5054995;28;20036;-43
2022/01/06 11:45:06;;;;;;;1.83;0.30;;;;;;;;;;5054966;28;20033;-43
2022/01/06 11:47:38;;;;;;;3.50;0.77;;;15.80;83.70;;;;;;5055150;28;20029;-45
2022/01/06 11:50:08;;;;;;;2.97;0.60;;;15.80;77.40;;;;;;5054904;28;20032;-44
2022/01/06 11:52:34;;;;;;;2.55;0.60;;;;;;;;;;5054863;28;20041;-44
2022/01/06 11:55:11;;;;;;;2.17;0.77;;;15.90;83.00;;;;;;5054743;28;20028;-43
2022/01/06 11:57:38;;;;;;;2.03;0.75;;;15.90;80.40;;;;;;5054762;28;20108;-44
2022/01/06 12:00:18;;;;;;;0.88;0.50;;;15.90;77.00;;;;;;5054627;28;20037;-43
2022/01/06 12:02:56;;;;;;;0.90;0.43;;;15.90;83.30;;;;;;5054461;28;20656;-45
2022/01/06 12:05:22;;;;;;;1.45;0.70;;;;;;;;;;5054843;28;20030;-44
2022/01/06 12:07:53;;;;;;;1.95;0.65;;;16.00;76.90;;;;;;5054440;28;20025;-44
2022/01/06 12:10:20;;;;;;;1.83;0.85;;;;;;;;;;5054479;28;20169;-43
2022/01/06 12:12:48;;;;;;;1.55;0.80;;;16.00;82.70;;;;;;5054270;28;20032;-44
2022/01/06 12:15:17;;;;;;;2.53;0.73;;;16.10;83.00;;;;;;5054576;28;20426;-44
2022/01/06 12:17:48;;;;;;;1.92;0.40;;;16.10;76.80;;;;;;5054281;28;20356;-43
2022/01/06 12:20:23;;;;;;;1.88;0.50;;;15.90;76.90;;;;;;5053393;28;20052;-44
2022/01/06 12:22:49;;;;;;;1.75;0.50;;;;;;;;;;5052648;28;20036;-44
2022/01/06 12:25:15;;;;;;;1.40;0.70;;;;;;;;;;5052923;28;20088;-45
2022/01/06 12:27:48;;;;;;;1.25;0.68;;;16.20;77.10;;;;;;5053081;28;20104;-52
2022/01/06 12:30:14;;;;;;;3.40;0.82;;;;;;;;;;5053496;28;20033;-46
2022/01/06 12:32:40;;;;;;;1.73;0.65;;;;;;;;;;5053426;28;20049;-44
2022/01/06 12:35:06;;;;;;;2.35;0.70;;;;;;;;;;5053644;28;20028;-45
2022/01/06 12:37:32;;;;;;;1.88;0.73;;;;;;;;;;5053918;28;20040;-45
2022/01/06 12:40:00;;;;;;;5.13;0.70;;;;;;;;;;5053722;28;20028;-44
2022/01/06 12:42:26;;;;;;;2.20;0.70;;;;;;;;;;5053896;28;20066;-45
2022/01/06 12:44:53;;;;;;;2.60;0.77;;;;;;;;;;5053667;28;20029;-49
2022/01/06 12:47:19;;;;;;;1.48;0.85;;;;;;;;;;5053501;28;20025;-44
2022/01/06 12:49:45;;;;;;;4.28;0.85;;;16.10;80.50;;;;;;5053596;28;20029;-45
2022/01/06 12:52:11;;;;;;;3.08;0.57;;;;;;;;;;5053473;28;20035;-44
2022/01/06 12:54:40;;;;;;;2.10;0.65;;;;;;;;;;5053619;28;20104;-44
2022/01/06 12:57:09;;;;;;;1.83;0.60;;;;;;;;;;5053600;28;20024;-43
2022/01/06 12:59:37;;;;;;;3.10;0.70;;;16.10;83.40;;;;;;5053449;28;20108;-43
2022/01/06 13:02:09;;;;;;;3.15;0.95;;;16.20;77.40;;;;;;5053154;28;20559;-44
2022/01/06 13:04:40;;;;;;;1.25;0.40;;;16.20;83.60;;;;;;5053268;28;20104;-44
2022/01/06 13:07:09;;;;;;;1.92;1.08;;;16.60;83.10;;;;;;5053469;28;20032;-44
2022/01/06 13:09:36;;;;;;;1.95;0.73;;;16.70;83.00;;;;;;5053071;28;20029;-45
2022/01/06 13:12:04;;;;;;;1.30;0.40;;;16.90;82.50;;;;;;5053197;28;20047;-44
2022/01/06 13:14:45;;;;;;;1.00;0.63;;;17.20;76.40;;;;;;5053025;28;20032;-44
2022/01/06 13:17:19;;;;;;;2.08;0.73;;;17.30;82.20;;;;;;5053122;28;20451;-44
2022/01/06 13:19:56;;;;;;;1.85;0.65;;;17.50;75.70;;;;;;5053076;28;20106;-43
2022/01/06 13:25:14;;;;;;;4.22;0.50;;;17.60;78.40;;;;;;5053377;28;20047;-44
2022/01/06 13:27:40;;;;;;;1.75;0.60;;;;;;;;;;5053269;28;20057;-44
2022/01/06 13:30:09;;;;;;;2.75;0.80;;;;;;;;;;5052882;28;20040;-44
2022/01/06 13:32:35;;;;;;;1.52;0.63;;;;;;;;;;5052673;28;20036;-45
2022/01/06 13:35:10;;;;;;;1.45;0.50;;;18.20;80.90;;;;;;5052605;28;20033;-42
2022/01/06 13:37:37;;;;;;;1.35;0.50;;;18.20;80.40;;;;;;5052934;28;20025;-42
2022/01/06 13:40:09;;;;;;;1.13;0.43;;;18.50;74.30;;;;;;5052587;28;20037;-43
2022/01/06 13:42:38;;;;;;;1.30;0.57;;;18.60;80.30;;;;;;5052664;28;20090;-51
2022/01/06 13:45:53;;;;;;;2.13;0.65;;;18.40;79.80;;;;;;5052953;28;20114;-51
2022/01/06 13:53:35;;;;;;;1.58;0.60;;;18.60;73.40;;;;;;5052742;28;20086;-50
2022/01/06 13:56:01;;;;;;;2.60;0.80;;;;;;;;;;5050919;28;20036;-49
2022/01/06 13:58:27;;;;;;;2.15;0.80;;;;;;;;;;5052033;28;20076;-50
2022/01/06 14:00:54;;;;;;;1.30;0.57;;;19.20;75.80;;;;;;5052392;28;20047;-51
2022/01/06 14:03:20;;;;;;;2.60;0.77;;;;;;;;;;5052153;28;20446;-52
2022/01/06 14:05:47;;;;;;;1.92;0.70;;;;;;;;;;5052506;28;20094;-50
2022/01/06 14:08:12;;;;;;;3.05;0.80;;;;;;;;;;5052283;28;20070;-51
2022/01/06 14:10:41;;;;;;;2.17;0.68;;;;;;;;;;5051779;28;20037;-53
2022/01/06 14:13:07;;;;;;;3.95;0.63;;;;;;;;;;5050518;28;20048;-51
2022/01/06 14:15:33;;;;;;;1.77;0.80;;;;;;;;;;5051975;28;20033;-51
2022/01/06 14:17:59;;;;;;;3.92;0.70;;;19.30;74.90;;;;;;5051922;28;20473;-52
2022/01/06 14:20:25;;;;;;;3.17;0.77;;;;;;;;;;5052007;28;20078;-44
2022/01/06 14:22:51;;;;;;;1.55;0.50;;;;;;;;;;5052095;28;20028;-44
2022/01/06 14:25:17;;;;;;;1.80;0.60;;;;;;;;;;5052034;28;20025;-44